createdAt,value
2018-12-01T00:00:06.018Z,1007.47
2018-12-01T00:01:14.698Z,1007.45
2018-12-01T00:02:23.365Z,1007.43
2018-12-01T00:03:32.035Z,1007.45
2018-12-01T00:04:40.713Z,1007.42
2018-12-01T00:05:49.386Z,1007.39
2018-12-01T00:06:58.054Z,1007.41
2018-12-01T00:08:06.724Z,1007.36
2018-12-01T00:09:15.393Z,1007.41
2018-12-01T00:10:24.070Z,1007.36
2018-12-01T00:11:32.742Z,1007.39
2018-12-01T00:12:41.411Z,1007.37
2018-12-01T00:13:50.120Z,1007.38
2018-12-01T00:14:58.782Z,1007.39
2018-12-01T00:16:07.452Z,1007.41
2018-12-01T00:17:16.121Z,1007.4
2018-12-01T00:18:24.787Z,1007.42
2018-12-01T00:19:33.455Z,1007.38
2018-12-01T00:20:42.167Z,1007.43
2018-12-01T00:21:50.835Z,1007.4
2018-12-01T00:22:59.513Z,1007.36
2018-12-01T00:24:08.181Z,1007.41
2018-12-01T00:25:16.852Z,1007.45
2018-12-01T00:26:25.775Z,1007.43
2018-12-01T00:27:34.445Z,1007.45
2018-12-01T00:28:43.163Z,1007.44
2018-12-01T00:29:51.841Z,1007.41
2018-12-01T00:31:00.508Z,1007.45
2018-12-01T00:32:09.432Z,1007.42
2018-12-01T00:33:18.105Z,1007.4
2018-12-01T00:34:26.831Z,1007.4
2018-12-01T00:35:35.508Z,1007.41
2018-12-01T00:36:44.190Z,1007.4
2018-12-01T00:37:52.863Z,1007.41
2018-12-01T00:39:01.540Z,1007.43
2018-12-01T00:40:10.468Z,1007.37
2018-12-01T00:41:19.144Z,1007.38
2018-12-01T00:42:27.817Z,1007.38
2018-12-01T00:43:36.474Z,1007.38
2018-12-01T00:44:45.144Z,1007.42
2018-12-01T00:45:53.825Z,1007.43
2018-12-01T00:47:02.500Z,1007.41
2018-12-01T00:48:11.178Z,1007.42
2018-12-01T00:49:19.860Z,1007.44
2018-12-01T00:50:28.532Z,1007.43
2018-12-01T00:51:37.208Z,1007.45
2018-12-01T00:52:45.884Z,1007.45
2018-12-01T00:53:54.583Z,1007.49
2018-12-01T00:55:03.251Z,1007.44
2018-12-01T00:56:11.918Z,1007.5
2018-12-01T00:57:20.585Z,1007.49
2018-12-01T00:58:29.262Z,1007.48
2018-12-01T00:59:37.938Z,1007.49
2018-12-01T01:00:46.608Z,1007.51
2018-12-01T01:01:55.277Z,1007.51
2018-12-01T01:03:04.200Z,1007.5
2018-12-01T01:04:12.866Z,1007.5
2018-12-01T01:05:21.560Z,1007.48
2018-12-01T01:06:30.493Z,1007.47
2018-12-01T01:07:39.161Z,1007.44
2018-12-01T01:08:47.830Z,1007.45
2018-12-01T01:09:56.503Z,1007.45
2018-12-01T01:11:05.436Z,1007.45
2018-12-01T01:12:14.106Z,1007.44
2018-12-01T01:13:22.784Z,1007.44
2018-12-01T01:14:31.450Z,1007.41
2018-12-01T01:15:40.124Z,1007.39
2018-12-01T01:16:48.794Z,1007.39
2018-12-01T01:17:57.464Z,1007.44
2018-12-01T01:19:06.128Z,1007.41
2018-12-01T01:20:14.807Z,1007.43
2018-12-01T01:21:23.731Z,1007.44
2018-12-01T01:22:32.412Z,1007.45
2018-12-01T01:23:41.081Z,1007.48
2018-12-01T01:24:49.752Z,1007.5
2018-12-01T01:25:58.424Z,1007.51
2018-12-01T01:27:07.096Z,1007.52
2018-12-01T01:28:15.764Z,1007.52
2018-12-01T01:29:24.433Z,1007.54
2018-12-01T01:30:33.104Z,1007.59
2018-12-01T01:31:41.773Z,1007.56
2018-12-01T01:32:50.445Z,1007.61
2018-12-01T01:33:59.108Z,1007.6
2018-12-01T01:35:07.778Z,1007.58
2018-12-01T01:36:16.705Z,1007.63
2018-12-01T01:37:25.385Z,1007.62
2018-12-01T01:38:34.047Z,1007.6
2018-12-01T01:39:42.716Z,1007.66
2018-12-01T01:40:51.384Z,1007.65
2018-12-01T01:42:00.067Z,1007.61
2018-12-01T01:43:08.737Z,1007.58
2018-12-01T01:44:17.416Z,1007.53
2018-12-01T01:45:26.083Z,1007.49
2018-12-01T01:46:34.757Z,1007.5
2018-12-01T01:47:43.698Z,1007.5
2018-12-01T01:48:52.370Z,1007.52
2018-12-01T01:50:01.044Z,1007.47
2018-12-01T01:51:09.703Z,1007.51
2018-12-01T01:52:18.393Z,1007.48
2018-12-01T01:53:27.059Z,1007.5
2018-12-01T01:54:35.739Z,1007.48
2018-12-01T01:55:44.660Z,1007.49
2018-12-01T01:56:53.342Z,1007.46
2018-12-01T01:58:02.014Z,1007.48
2018-12-01T01:59:11.199Z,1007.5
2018-12-01T02:00:19.862Z,1007.43
2018-12-01T02:01:28.539Z,1007.39
2018-12-01T02:02:37.229Z,1007.41
2018-12-01T02:03:46.182Z,1007.35
2018-12-01T02:04:54.863Z,1007.34
2018-12-01T02:06:03.532Z,1007.3
2018-12-01T02:07:12.209Z,1007.35
2018-12-01T02:08:20.877Z,1007.35
2018-12-01T02:09:29.563Z,1007.34
2018-12-01T02:10:38.231Z,1007.32
2018-12-01T02:11:46.918Z,1007.28
2018-12-01T02:12:55.588Z,1007.29
2018-12-01T02:14:04.269Z,1007.28
2018-12-01T02:15:13.186Z,1007.3
2018-12-01T02:16:22.120Z,1007.31
2018-12-01T02:17:31.099Z,1007.35
2018-12-01T02:18:39.797Z,1007.38
2018-12-01T02:19:48.468Z,1007.37
2018-12-01T02:20:57.140Z,1007.37
2018-12-01T02:22:05.809Z,1007.37
2018-12-01T02:23:14.479Z,1007.34
2018-12-01T02:24:23.156Z,1007.37
2018-12-01T02:25:31.826Z,1007.41
2018-12-01T02:26:40.754Z,1007.35
2018-12-01T02:27:49.685Z,1007.34
2018-12-01T02:28:58.378Z,1007.29
2018-12-01T02:30:07.054Z,1007.35
2018-12-01T02:31:16.294Z,1007.36
2018-12-01T02:32:24.967Z,1007.37
2018-12-01T02:33:33.917Z,1007.4
2018-12-01T02:34:42.585Z,1007.36
2018-12-01T02:35:51.265Z,1007.39
2018-12-01T02:36:59.937Z,1007.4
2018-12-01T02:38:08.624Z,1007.4
2018-12-01T02:39:17.310Z,1007.38
2018-12-01T02:40:26.026Z,1007.34
2018-12-01T02:41:34.954Z,1007.34
2018-12-01T02:42:43.616Z,1007.32
2018-12-01T02:43:52.558Z,1007.32
2018-12-01T02:45:01.221Z,1007.31
2018-12-01T02:46:09.911Z,1007.32
2018-12-01T02:47:18.586Z,1007.31
2018-12-01T02:48:27.257Z,1007.34
2018-12-01T02:49:35.935Z,1007.34
2018-12-01T02:50:44.612Z,1007.39
2018-12-01T02:51:53.284Z,1007.4
2018-12-01T02:53:02.227Z,1007.34
2018-12-01T02:54:11.155Z,1007.37
2018-12-01T02:55:20.081Z,1007.37
2018-12-01T02:56:29.024Z,1007.37
2018-12-01T02:57:37.695Z,1007.32
2018-12-01T02:58:46.361Z,1007.35
2018-12-01T02:59:55.030Z,1007.36
2018-12-01T03:01:03.704Z,1007.35
2018-12-01T03:02:12.370Z,1007.34
2018-12-01T03:03:21.296Z,1007.35
2018-12-01T03:04:29.962Z,1007.34
2018-12-01T03:05:38.637Z,1007.36
2018-12-01T03:06:47.304Z,1007.34
2018-12-01T03:07:55.981Z,1007.39
2018-12-01T03:09:04.656Z,1007.33
2018-12-01T03:10:13.329Z,1007.35
2018-12-01T03:11:21.999Z,1007.39
2018-12-01T03:12:30.676Z,1007.36
2018-12-01T03:13:39.346Z,1007.33
2018-12-01T03:14:48.018Z,1007.3
2018-12-01T03:15:56.687Z,1007.32
2018-12-01T03:17:05.356Z,1007.29
2018-12-01T03:18:14.022Z,1007.3
2018-12-01T03:19:22.685Z,1007.3
2018-12-01T03:20:31.352Z,1007.32
2018-12-01T03:21:40.020Z,1007.35
2018-12-01T03:22:48.694Z,1007.33
2018-12-01T03:23:57.361Z,1007.32
2018-12-01T03:25:06.288Z,1007.35
2018-12-01T03:26:14.957Z,1007.35
2018-12-01T03:27:23.666Z,1007.36
2018-12-01T03:28:32.331Z,1007.4
2018-12-01T03:29:41.002Z,1007.39
2018-12-01T03:30:49.672Z,1007.35
2018-12-01T03:31:58.621Z,1007.34
2018-12-01T03:33:07.317Z,1007.34
2018-12-01T03:34:15.988Z,1007.35
2018-12-01T03:35:24.686Z,1007.31
2018-12-01T03:36:33.623Z,1007.31
2018-12-01T03:37:42.293Z,1007.32
2018-12-01T03:38:50.961Z,1007.31
2018-12-01T03:39:59.635Z,1007.32
2018-12-01T03:41:08.589Z,1007.31
2018-12-01T03:42:17.260Z,1007.33
2018-12-01T03:43:25.928Z,1007.31
2018-12-01T03:44:34.597Z,1007.32
2018-12-01T03:45:43.301Z,1007.31
2018-12-01T03:46:51.980Z,1007.34
2018-12-01T03:48:00.649Z,1007.36
2018-12-01T03:49:09.321Z,1007.36
2018-12-01T03:50:17.973Z,1007.32
2018-12-01T03:51:26.662Z,1007.34
2018-12-01T03:52:35.338Z,1007.33
2018-12-01T03:53:44.010Z,1007.33
2018-12-01T03:54:52.683Z,1007.32
2018-12-01T03:56:01.337Z,1007.31
2018-12-01T03:57:10.015Z,1007.34
2018-12-01T03:58:18.932Z,1007.32
2018-12-01T03:59:27.611Z,1007.29
2018-12-01T04:00:36.317Z,1007.33
2018-12-01T04:01:44.991Z,1007.37
2018-12-01T04:02:53.657Z,1007.37
2018-12-01T04:04:02.336Z,1007.45
2018-12-01T04:05:10.999Z,1007.42
2018-12-01T04:06:19.674Z,1007.45
2018-12-01T04:07:28.343Z,1007.42
2018-12-01T04:08:37.017Z,1007.41
2018-12-01T04:09:45.681Z,1007.43
2018-12-01T04:10:54.345Z,1007.43
2018-12-01T04:12:03.039Z,1007.41
2018-12-01T04:13:11.705Z,1007.4
2018-12-01T04:14:20.381Z,1007.39
2018-12-01T04:15:29.340Z,1007.41
2018-12-01T04:16:38.013Z,1007.41
2018-12-01T04:17:46.673Z,1007.43
2018-12-01T04:18:55.353Z,1007.42
2018-12-01T04:20:04.017Z,1007.48
2018-12-01T04:21:12.691Z,1007.42
2018-12-01T04:22:21.347Z,1007.47
2018-12-01T04:23:30.027Z,1007.46
2018-12-01T04:24:38.698Z,1007.47
2018-12-01T04:25:47.374Z,1007.44
2018-12-01T04:26:56.027Z,1007.44
2018-12-01T04:28:04.704Z,1007.44
2018-12-01T04:29:13.375Z,1007.48
2018-12-01T04:30:22.572Z,1007.5
2018-12-01T04:31:31.761Z,1007.52
2018-12-01T04:32:40.435Z,1007.54
2018-12-01T04:33:49.106Z,1007.48
2018-12-01T04:34:58.019Z,1007.48
2018-12-01T04:36:06.694Z,1007.48
2018-12-01T04:37:15.356Z,1007.48
2018-12-01T04:38:24.041Z,1007.48
2018-12-01T04:39:32.705Z,1007.5
2018-12-01T04:40:41.382Z,1007.47
2018-12-01T04:41:50.041Z,1007.5
2018-12-01T04:42:58.710Z,1007.52
2018-12-01T04:44:07.647Z,1007.54
2018-12-01T04:45:16.312Z,1007.58
2018-12-01T04:46:24.981Z,1007.59
2018-12-01T04:47:33.649Z,1007.64
2018-12-01T04:48:42.325Z,1007.58
2018-12-01T04:49:50.999Z,1007.62
2018-12-01T04:50:59.655Z,1007.64
2018-12-01T04:52:08.586Z,1007.66
2018-12-01T04:53:17.252Z,1007.63
2018-12-01T04:54:26.181Z,1007.65
2018-12-01T04:55:34.840Z,1007.69
2018-12-01T04:56:43.522Z,1007.71
2018-12-01T04:57:52.206Z,1007.73
2018-12-01T04:59:01.136Z,1007.73
2018-12-01T05:00:09.789Z,1007.74
2018-12-01T05:01:18.461Z,1007.72
2018-12-01T05:02:27.385Z,1007.73
2018-12-01T05:03:36.061Z,1007.77
2018-12-01T05:04:44.724Z,1007.78
2018-12-01T05:05:53.384Z,1007.77
2018-12-01T05:07:02.053Z,1007.75
2018-12-01T05:08:10.978Z,1007.81
2018-12-01T05:09:19.654Z,1007.85
2018-12-01T05:10:28.318Z,1007.88
2018-12-01T05:11:36.991Z,1007.84
2018-12-01T05:12:45.651Z,1007.85
2018-12-01T05:13:54.335Z,1007.85
2018-12-01T05:15:03.000Z,1007.77
2018-12-01T05:16:11.929Z,1007.78
2018-12-01T05:17:20.594Z,1007.82
2018-12-01T05:18:29.270Z,1007.78
2018-12-01T05:19:37.931Z,1007.76
2018-12-01T05:20:46.597Z,1007.75
2018-12-01T05:21:55.530Z,1007.73
2018-12-01T05:23:04.198Z,1007.79
2018-12-01T05:24:12.873Z,1007.77
2018-12-01T05:25:21.549Z,1007.82
2018-12-01T05:26:30.222Z,1007.83
2018-12-01T05:27:38.885Z,1007.85
2018-12-01T05:28:47.563Z,1007.86
2018-12-01T05:29:56.225Z,1007.84
2018-12-01T05:31:05.156Z,1007.79
2018-12-01T05:32:13.823Z,1007.84
2018-12-01T05:33:22.503Z,1007.87
2018-12-01T05:34:31.171Z,1007.87
2018-12-01T05:35:39.851Z,1007.85
2018-12-01T05:36:48.525Z,1007.84
2018-12-01T05:37:57.198Z,1007.82
2018-12-01T05:39:05.861Z,1007.82
2018-12-01T05:40:14.535Z,1007.79
2018-12-01T05:41:23.204Z,1007.73
2018-12-01T05:42:32.121Z,1007.78
2018-12-01T05:43:40.793Z,1007.77
2018-12-01T05:44:49.464Z,1007.79
2018-12-01T05:45:58.136Z,1007.76
2018-12-01T05:47:06.806Z,1007.77
2018-12-01T05:48:15.475Z,1007.79
2018-12-01T05:49:24.139Z,1007.75
2018-12-01T05:50:32.812Z,1007.8
2018-12-01T05:51:41.530Z,1007.79
2018-12-01T05:52:50.199Z,1007.77
2018-12-01T05:53:58.869Z,1007.77
2018-12-01T05:55:07.801Z,1007.74
2018-12-01T05:56:16.734Z,1007.77
2018-12-01T05:57:25.404Z,1007.75
2018-12-01T05:58:34.069Z,1007.75
2018-12-01T05:59:42.995Z,1007.76
2018-12-01T06:00:51.669Z,1007.76
2018-12-01T06:02:00.337Z,1007.77
2018-12-01T06:03:09.007Z,1007.82
2018-12-01T06:04:17.667Z,1007.79
2018-12-01T06:05:26.334Z,1007.75
2018-12-01T06:06:35.022Z,1007.76
2018-12-01T06:07:43.741Z,1007.79
2018-12-01T06:08:52.425Z,1007.75
2018-12-01T06:10:01.352Z,1007.79
2018-12-01T06:11:10.020Z,1007.73
2018-12-01T06:12:18.694Z,1007.69
2018-12-01T06:13:27.360Z,1007.73
2018-12-01T06:14:36.032Z,1007.75
2018-12-01T06:15:44.955Z,1007.69
2018-12-01T06:16:53.623Z,1007.66
2018-12-01T06:18:02.292Z,1007.65
2018-12-01T06:19:11.225Z,1007.65
2018-12-01T06:20:19.895Z,1007.61
2018-12-01T06:21:28.573Z,1007.67
2018-12-01T06:22:37.245Z,1007.67
2018-12-01T06:23:45.958Z,1007.68
2018-12-01T06:24:54.627Z,1007.72
2018-12-01T06:26:03.297Z,1007.7
2018-12-01T06:27:12.254Z,1007.66
2018-12-01T06:28:20.933Z,1007.64
2018-12-01T06:29:29.601Z,1007.59
2018-12-01T06:30:38.266Z,1007.56
2018-12-01T06:31:46.947Z,1007.54
2018-12-01T06:32:55.621Z,1007.53
2018-12-01T06:34:04.294Z,1007.51
2018-12-01T06:35:13.219Z,1007.52
2018-12-01T06:36:21.908Z,1007.5
2018-12-01T06:37:30.844Z,1007.46
2018-12-01T06:38:39.535Z,1007.52
2018-12-01T06:39:48.204Z,1007.55
2018-12-01T06:40:56.875Z,1007.53
2018-12-01T06:42:05.541Z,1007.56
2018-12-01T06:43:14.209Z,1007.51
2018-12-01T06:44:22.869Z,1007.54
2018-12-01T06:45:31.551Z,1007.61
2018-12-01T06:46:40.218Z,1007.61
2018-12-01T06:47:48.890Z,1007.58
2018-12-01T06:48:57.547Z,1007.56
2018-12-01T06:50:06.234Z,1007.61
2018-12-01T06:51:14.902Z,1007.67
2018-12-01T06:52:23.572Z,1007.63
2018-12-01T06:53:32.235Z,1007.63
2018-12-01T06:54:41.168Z,1007.65
2018-12-01T06:55:49.871Z,1007.68
2018-12-01T06:56:58.818Z,1007.68
2018-12-01T06:58:07.527Z,1007.68
2018-12-01T06:59:16.185Z,1007.64
2018-12-01T07:00:24.856Z,1007.65
2018-12-01T07:01:33.519Z,1007.7
2018-12-01T07:02:42.194Z,1007.66
2018-12-01T07:03:50.866Z,1007.64
2018-12-01T07:04:59.542Z,1007.64
2018-12-01T07:06:08.470Z,1007.67
2018-12-01T07:07:17.158Z,1007.67
2018-12-01T07:08:25.824Z,1007.67
2018-12-01T07:09:34.505Z,1007.68
2018-12-01T07:10:43.179Z,1007.66
2018-12-01T07:11:51.866Z,1007.64
2018-12-01T07:13:00.538Z,1007.71
2018-12-01T07:14:09.455Z,1007.73
2018-12-01T07:15:18.124Z,1007.72
2018-12-01T07:16:27.060Z,1007.72
2018-12-01T07:17:35.739Z,1007.68
2018-12-01T07:18:44.651Z,1007.71
2018-12-01T07:19:53.321Z,1007.66
2018-12-01T07:21:01.979Z,1007.63
2018-12-01T07:22:10.667Z,1007.61
2018-12-01T07:23:19.328Z,1007.59
2018-12-01T07:24:28.004Z,1007.59
2018-12-01T07:25:36.661Z,1007.54
2018-12-01T07:26:45.606Z,1007.51
2018-12-01T07:27:54.272Z,1007.49
2018-12-01T07:29:02.946Z,1007.53
2018-12-01T07:30:11.611Z,1007.51
2018-12-01T07:31:20.292Z,1007.51
2018-12-01T07:32:28.963Z,1007.53
2018-12-01T07:33:37.637Z,1007.58
2018-12-01T07:34:46.307Z,1007.53
2018-12-01T07:35:54.967Z,1007.56
2018-12-01T07:37:03.659Z,1007.57
2018-12-01T07:38:12.837Z,1007.61
2018-12-01T07:39:21.511Z,1007.63
2018-12-01T07:40:30.180Z,1007.62
2018-12-01T07:41:39.101Z,1007.65
2018-12-01T07:42:47.779Z,1007.64
2018-12-01T07:43:56.457Z,1007.62
2018-12-01T07:45:05.123Z,1007.6
2018-12-01T07:46:13.791Z,1007.61
2018-12-01T07:47:22.453Z,1007.58
2018-12-01T07:48:31.135Z,1007.65
2018-12-01T07:49:40.064Z,1007.62
2018-12-01T07:50:48.731Z,1007.68
2018-12-01T07:51:57.395Z,1007.69
2018-12-01T07:53:06.068Z,1007.69
2018-12-01T07:54:17.610Z,1007.74
2018-12-01T07:55:26.583Z,1007.77
2018-12-01T07:56:35.255Z,1007.77
2018-12-01T07:57:44.172Z,1007.79
2018-12-01T07:58:53.102Z,1007.81
2018-12-01T08:00:02.036Z,1007.77
2018-12-01T08:01:10.703Z,1007.75
2018-12-01T08:02:19.372Z,1007.74
2018-12-01T08:03:28.043Z,1007.75
2018-12-01T08:04:36.717Z,1007.7
2018-12-01T08:05:45.394Z,1007.67
2018-12-01T08:06:54.561Z,1007.67
2018-12-01T08:08:03.234Z,1007.67
2018-12-01T08:09:11.902Z,1007.6
2018-12-01T08:10:20.577Z,1007.59
2018-12-01T08:11:29.245Z,1007.6
2018-12-01T08:12:37.913Z,1007.64
2018-12-01T08:13:46.589Z,1007.69
2018-12-01T08:14:55.512Z,1007.66
2018-12-01T08:16:04.181Z,1007.69
2018-12-01T08:17:12.844Z,1007.69
2018-12-01T08:18:21.512Z,1007.7
2018-12-01T08:19:30.182Z,1007.67
2018-12-01T08:20:38.863Z,1007.7
2018-12-01T08:21:47.777Z,1007.71
2018-12-01T08:22:56.463Z,1007.69
2018-12-01T08:24:05.137Z,1007.69
2018-12-01T08:25:13.821Z,1007.71
2018-12-01T08:26:22.747Z,1007.75
2018-12-01T08:27:31.419Z,1007.79
2018-12-01T08:28:40.089Z,1007.8
2018-12-01T08:29:48.754Z,1007.75
2018-12-01T08:30:57.437Z,1007.82
2018-12-01T08:32:06.160Z,1007.86
2018-12-01T08:33:14.835Z,1007.87
2018-12-01T08:34:24.020Z,1007.84
2018-12-01T08:35:32.957Z,1007.85
2018-12-01T08:36:41.631Z,1007.83
2018-12-01T08:37:50.302Z,1007.81
2018-12-01T08:38:58.984Z,1007.78
2018-12-01T08:40:07.650Z,1007.72
2018-12-01T08:41:16.333Z,1007.65
2018-12-01T08:42:25.254Z,1007.67
2018-12-01T08:43:33.929Z,1007.67
2018-12-01T08:44:42.612Z,1007.7
2018-12-01T08:45:51.286Z,1007.74
2018-12-01T08:47:00.209Z,1007.74
2018-12-01T08:48:08.879Z,1007.74
2018-12-01T08:49:17.553Z,1007.73
2018-12-01T08:50:26.228Z,1007.75
2018-12-01T08:51:34.897Z,1007.81
2018-12-01T08:52:43.563Z,1007.79
2018-12-01T08:53:52.520Z,1007.82
2018-12-01T08:55:01.190Z,1007.84
2018-12-01T08:56:09.856Z,1007.83
2018-12-01T08:57:18.522Z,1007.82
2018-12-01T08:58:27.204Z,1007.81
2018-12-01T08:59:35.869Z,1007.75
2018-12-01T09:00:44.544Z,1007.77
2018-12-01T09:01:53.209Z,1007.76
2018-12-01T09:03:01.882Z,1007.74
2018-12-01T09:04:10.604Z,1007.73
2018-12-01T09:05:20.384Z,1007.75
2018-12-01T09:06:29.055Z,1007.81
2018-12-01T09:07:38.027Z,1007.82
2018-12-01T09:08:46.705Z,1007.78
2018-12-01T09:09:55.377Z,1007.75
2018-12-01T09:11:04.563Z,1007.78
2018-12-01T09:12:14.218Z,1007.8
2018-12-01T09:13:23.202Z,1007.82
2018-12-01T09:14:31.869Z,1007.9
2018-12-01T09:15:40.802Z,1007.88
2018-12-01T09:16:49.473Z,1007.88
2018-12-01T09:17:58.148Z,1007.9
2018-12-01T09:19:06.821Z,1007.87
2018-12-01T09:20:15.495Z,1007.86
2018-12-01T09:21:24.170Z,1007.86
2018-12-01T09:22:32.843Z,1007.94
2018-12-01T09:23:41.561Z,1007.93
2018-12-01T09:24:50.231Z,1007.91
2018-12-01T09:25:58.904Z,1007.88
2018-12-01T09:27:07.571Z,1007.85
2018-12-01T09:28:16.246Z,1007.87
2018-12-01T09:29:25.165Z,1007.82
2018-12-01T09:30:34.105Z,1007.79
2018-12-01T09:31:42.775Z,1007.83
2018-12-01T09:32:51.450Z,1007.82
2018-12-01T09:34:00.124Z,1007.78
2018-12-01T09:35:08.797Z,1007.81
2018-12-01T09:36:17.466Z,1007.82
2018-12-01T09:37:26.145Z,1007.81
2018-12-01T09:38:34.808Z,1007.78
2018-12-01T09:39:43.499Z,1007.77
2018-12-01T09:40:52.174Z,1007.76
2018-12-01T09:42:00.852Z,1007.77
2018-12-01T09:43:09.526Z,1007.81
2018-12-01T09:44:18.192Z,1007.82
2018-12-01T09:45:26.867Z,1007.83
2018-12-01T09:46:35.530Z,1007.84
2018-12-01T09:47:44.214Z,1007.82
2018-12-01T09:48:52.878Z,1007.84
2018-12-01T09:50:01.560Z,1007.84
2018-12-01T09:51:10.301Z,1007.8
2018-12-01T09:52:18.982Z,1007.85
2018-12-01T09:53:27.643Z,1007.85
2018-12-01T09:54:36.324Z,1007.82
2018-12-01T09:55:44.989Z,1007.87
2018-12-01T09:56:53.668Z,1007.83
2018-12-01T09:58:02.333Z,1007.8
2018-12-01T09:59:11.000Z,1007.75
2018-12-01T10:00:19.712Z,1007.7
2018-12-01T10:01:28.637Z,1007.7
2018-12-01T10:02:37.322Z,1007.68
2018-12-01T10:03:45.997Z,1007.64
2018-12-01T10:04:54.674Z,1007.65
2018-12-01T10:06:03.360Z,1007.61
2018-12-01T10:07:12.586Z,1007.71
2018-12-01T10:08:21.258Z,1007.71
2018-12-01T10:09:30.191Z,1007.73
2018-12-01T10:10:38.867Z,1007.75
2018-12-01T10:11:50.447Z,1007.73
2018-12-01T10:12:59.191Z,1007.78
2018-12-01T10:14:07.872Z,1007.73
2018-12-01T10:15:16.536Z,1007.75
2018-12-01T10:16:26.239Z,1007.76
2018-12-01T10:17:34.924Z,1007.67
2018-12-01T10:18:43.602Z,1007.68
2018-12-01T10:19:56.697Z,1007.63
2018-12-01T10:21:05.359Z,1007.62
2018-12-01T10:22:14.032Z,1007.64
2018-12-01T10:23:22.706Z,1007.6
2018-12-01T10:24:31.909Z,1007.61
2018-12-01T10:25:40.822Z,1007.61
2018-12-01T10:26:49.497Z,1007.55
2018-12-01T10:27:58.163Z,1007.52
2018-12-01T10:29:06.851Z,1007.5
2018-12-01T10:30:15.548Z,1007.48
2018-12-01T10:31:24.249Z,1007.42
2018-12-01T10:32:34.088Z,1007.47
2018-12-01T10:33:42.768Z,1007.46
2018-12-01T10:34:52.651Z,1007.4
2018-12-01T10:36:01.316Z,1007.47
2018-12-01T10:37:09.993Z,1007.46
2018-12-01T10:38:18.660Z,1007.42
2018-12-01T10:39:27.340Z,1007.44
2018-12-01T10:40:36.019Z,1007.39
2018-12-01T10:41:44.737Z,1007.43
2018-12-01T10:42:53.415Z,1007.47
2018-12-01T10:44:02.357Z,1007.46
2018-12-01T10:45:11.028Z,1007.45
2018-12-01T10:46:19.700Z,1007.43
2018-12-01T10:47:28.388Z,1007.46
2018-12-01T10:48:37.067Z,1007.42
2018-12-01T10:49:45.992Z,1007.43
2018-12-01T10:50:54.663Z,1007.4
2018-12-01T10:52:03.336Z,1007.38
2018-12-01T10:53:12.005Z,1007.43
2018-12-01T10:54:20.674Z,1007.35
2018-12-01T10:55:29.346Z,1007.31
2018-12-01T10:56:38.549Z,1007.26
2018-12-01T10:57:47.211Z,1007.26
2018-12-01T10:58:55.883Z,1007.23
2018-12-01T11:00:04.814Z,1007.22
2018-12-01T11:01:13.486Z,1007.19
2018-12-01T11:02:22.158Z,1007.22
2018-12-01T11:03:30.831Z,1007.25
2018-12-01T11:04:39.500Z,1007.24
2018-12-01T11:05:48.436Z,1007.28
2018-12-01T11:06:57.112Z,1007.27
2018-12-01T11:08:05.790Z,1007.27
2018-12-01T11:09:14.526Z,1007.26
2018-12-01T11:10:23.203Z,1007.27
2018-12-01T11:11:31.885Z,1007.31
2018-12-01T11:12:40.564Z,1007.3
2018-12-01T11:13:49.235Z,1007.29
2018-12-01T11:14:57.906Z,1007.34
2018-12-01T11:16:06.586Z,1007.29
2018-12-01T11:17:15.264Z,1007.33
2018-12-01T11:18:23.938Z,1007.32
2018-12-01T11:19:32.861Z,1007.3
2018-12-01T11:20:41.541Z,1007.25
2018-12-01T11:21:50.462Z,1007.23
2018-12-01T11:22:59.139Z,1007.19
2018-12-01T11:24:08.081Z,1007.21
2018-12-01T11:25:17.015Z,1007.2
2018-12-01T11:26:26.647Z,1007.19
2018-12-01T11:27:35.319Z,1007.18
2018-12-01T11:28:44.247Z,1007.15
2018-12-01T11:29:52.929Z,1007.17
2018-12-01T11:31:01.661Z,1007.15
2018-12-01T11:32:10.340Z,1007.21
2018-12-01T11:33:19.030Z,1007.11
2018-12-01T11:34:27.704Z,1007.14
2018-12-01T11:35:36.386Z,1007.13
2018-12-01T11:36:45.054Z,1007.1
2018-12-01T11:37:53.740Z,1007.08
2018-12-01T11:39:02.399Z,1007.14
2018-12-01T11:40:11.085Z,1007.1
2018-12-01T11:41:19.839Z,1007.1
2018-12-01T11:42:28.773Z,1007.05
2018-12-01T11:43:37.440Z,1007.05
2018-12-01T11:44:46.117Z,1007.06
2018-12-01T11:45:59.213Z,1007.02
2018-12-01T11:47:08.156Z,1006.99
2018-12-01T11:48:16.827Z,1007.02
2018-12-01T11:49:25.498Z,1006.94
2018-12-01T11:50:34.172Z,1007
2018-12-01T11:51:43.095Z,1006.96
2018-12-01T11:52:51.775Z,1006.96
2018-12-01T11:54:00.445Z,1006.95
2018-12-01T11:55:09.132Z,1006.99
2018-12-01T11:56:17.800Z,1006.93
2018-12-01T11:57:26.483Z,1006.88
2018-12-01T11:58:35.151Z,1006.83
2018-12-01T11:59:43.824Z,1006.84
2018-12-01T12:00:52.490Z,1006.77
2018-12-01T12:02:01.173Z,1006.77
2018-12-01T12:03:09.853Z,1006.71
2018-12-01T12:04:18.542Z,1006.69
2018-12-01T12:05:27.464Z,1006.7
2018-12-01T12:06:36.400Z,1006.69
2018-12-01T12:07:45.337Z,1006.67
2018-12-01T12:08:54.011Z,1006.63
2018-12-01T12:10:02.685Z,1006.62
2018-12-01T12:11:11.348Z,1006.67
2018-12-01T12:12:20.023Z,1006.69
2018-12-01T12:13:28.692Z,1006.64
2018-12-01T12:14:37.412Z,1006.64
2018-12-01T12:15:46.073Z,1006.63
2018-12-01T12:16:54.754Z,1006.62
2018-12-01T12:18:03.423Z,1006.63
2018-12-01T12:19:12.109Z,1006.64
2018-12-01T12:20:20.773Z,1006.6
2018-12-01T12:21:29.459Z,1006.57
2018-12-01T12:22:38.133Z,1006.57
2018-12-01T12:23:46.810Z,1006.57
2018-12-01T12:24:55.488Z,1006.55
2018-12-01T12:26:04.435Z,1006.54
2018-12-01T12:27:13.110Z,1006.52
2018-12-01T12:28:22.039Z,1006.53
2018-12-01T12:29:30.720Z,1006.56
2018-12-01T12:30:39.385Z,1006.52
2018-12-01T12:31:48.067Z,1006.55
2018-12-01T12:32:56.739Z,1006.51
2018-12-01T12:34:05.415Z,1006.52
2018-12-01T12:35:14.089Z,1006.4
2018-12-01T12:36:22.758Z,1006.41
2018-12-01T12:37:31.710Z,1006.4
2018-12-01T12:38:40.382Z,1006.35
2018-12-01T12:39:49.061Z,1006.36
2018-12-01T12:40:57.731Z,1006.33
2018-12-01T12:42:06.410Z,1006.3
2018-12-01T12:43:15.085Z,1006.3
2018-12-01T12:44:23.757Z,1006.36
2018-12-01T12:45:32.690Z,1006.33
2018-12-01T12:46:41.370Z,1006.33
2018-12-01T12:47:50.048Z,1006.34
2018-12-01T12:48:58.970Z,1006.36
2018-12-01T12:50:07.652Z,1006.33
2018-12-01T12:51:16.314Z,1006.29
2018-12-01T12:52:24.999Z,1006.31
2018-12-01T12:53:33.924Z,1006.26
2018-12-01T12:54:42.599Z,1006.18
2018-12-01T12:55:51.258Z,1006.17
2018-12-01T12:56:59.939Z,1006.16
2018-12-01T12:58:08.861Z,1006.19
2018-12-01T12:59:17.537Z,1006.22
2018-12-01T13:00:26.204Z,1006.16
2018-12-01T13:01:34.887Z,1006.17
2018-12-01T13:02:43.580Z,1006.17
2018-12-01T13:03:52.261Z,1006.14
2018-12-01T13:05:00.938Z,1006.14
2018-12-01T13:06:09.607Z,1006.15
2018-12-01T13:07:18.286Z,1006.17
2018-12-01T13:08:26.962Z,1006.11
2018-12-01T13:09:35.899Z,1006.12
2018-12-01T13:10:44.561Z,1006.09
2018-12-01T13:11:53.289Z,1006.12
2018-12-01T13:13:01.959Z,1006.11
2018-12-01T13:14:10.640Z,1006.1
2018-12-01T13:15:19.302Z,1006.15
2018-12-01T13:16:28.011Z,1006.09
2018-12-01T13:17:37.196Z,1006.1
2018-12-01T13:18:46.140Z,1006.14
2018-12-01T13:19:54.809Z,1006.09
2018-12-01T13:21:03.732Z,1006.11
2018-12-01T13:22:12.400Z,1006.14
2018-12-01T13:23:21.074Z,1006.11
2018-12-01T13:24:29.764Z,1006.1
2018-12-01T13:25:38.441Z,1006.11
2018-12-01T13:26:47.127Z,1006.09
2018-12-01T13:27:55.790Z,1006.02
2018-12-01T13:29:04.738Z,1006.03
2018-12-01T13:30:13.405Z,1006.02
2018-12-01T13:31:22.085Z,1005.97
2018-12-01T13:32:30.746Z,1005.98
2018-12-01T13:33:39.419Z,1005.99
2018-12-01T13:34:48.106Z,1006
2018-12-01T13:35:57.343Z,1006.05
2018-12-01T13:37:06.008Z,1006.05
2018-12-01T13:38:18.525Z,1006.02
2018-12-01T13:39:27.202Z,1006
2018-12-01T13:40:35.892Z,1006.05
2018-12-01T13:41:44.567Z,1005.99
2018-12-01T13:42:53.234Z,1006.06
2018-12-01T13:44:02.176Z,1006.02
2018-12-01T13:45:10.848Z,1006.08
2018-12-01T13:46:19.580Z,1006.03
2018-12-01T13:47:28.241Z,1006.01
2018-12-01T13:48:36.918Z,1006
2018-12-01T13:49:45.587Z,1006
2018-12-01T13:50:54.265Z,1006.01
2018-12-01T13:52:02.942Z,1006.03
2018-12-01T13:53:11.615Z,1005.94
2018-12-01T13:54:20.282Z,1005.91